Time;durP1;ratioP1;P1;durP2;ratioP2;P2;SDS_P1;SDS_P2;PMS_P1;PMS_P2;Temp;Humidity;BMP_temperature;BMP_pressure;BME280_temperature;BME280_humidity;BME280_pressure;Samples;Min_cycle;Max_cycle;Signal;HPM_P1;HPM_P2
2022/01/27 00:04:42;;;;;;;6.90;4.53;;;;;;;;;;143732;564;46020;-84
2022/01/27 00:07:09;;;;;;;7.30;4.70;;;;;;;;;;143734;590;46019;-84
2022/01/27 00:09:48;;;;;;;5.80;3.85;;;;;;;;;;143731;687;46023;-84
2022/01/27 00:12:19;;;;;;;9.48;3.92;;;;;;;;;;143735;569;46020;-84
2022/01/27 00:14:57;;;;;;;6.05;4.93;;;;;;;;;;143736;646;46020;-84
2022/01/27 00:17:29;;;;;;;8.27;4.35;;;;;;;;;;143735;596;46013;-83
2022/01/27 00:19:57;;;;;;;4.97;3.47;;;;;;;;;;143735;569;46014;-84
2022/01/27 00:22:32;;;;;;;6.20;3.72;;;;;;;;;;143738;608;46015;-81
2022/01/27 00:25:02;;;;;;;6.70;4.05;;;;;;;;;;143733;660;46021;-84
2022/01/27 00:27:35;;;;;;;7.22;3.90;;;;;;;;;;143735;662;46012;-83
2022/01/27 00:30:12;;;;;;;5.45;3.72;;;;;;;;;;143733;632;46022;-82
2022/01/27 00:32:40;;;;;;;5.60;3.87;;;;;;;;;;143738;649;46020;-83
2022/01/27 00:35:09;;;;;;;8.23;4.32;;;;;;;;;;143735;610;46020;-83
2022/01/27 00:37:36;;;;;;;6.55;3.92;;;;;;;;;;143733;577;47021;-82
2022/01/27 00:40:04;;;;;;;9.10;5.07;;;;;;;;;;143732;577;47023;-82
2022/01/27 00:42:34;;;;;;;6.65;3.75;;;;;;;;;;143733;569;46012;-83
2022/01/27 00:45:04;;;;;;;9.00;4.28;;;;;;;;;;143734;564;46021;-81
2022/01/27 00:47:32;;;;;;;7.25;5.35;;;;;;;;;;143735;582;46012;-83
2022/01/27 00:49:59;;;;;;;6.70;5.25;;;;;;;;;;143730;677;46022;-82
2022/01/27 00:52:37;;;;;;;5.55;4.37;;;;;;;;;;143734;587;46013;-82
2022/01/27 00:55:05;;;;;;;5.37;3.97;;;;;;;;;;143734;581;46020;-83
2022/01/27 01:00:36;;;;;;;8.07;5.37;;;;;;;;;;143733;622;46015;-82
2022/01/27 01:03:21;;;;;;;8.80;5.25;;;;;;;;;;143733;658;46020;-83
2022/01/27 01:06:14;;;;;;;10.25;5.35;;;;;;;;;;143735;571;46014;-82
2022/01/27 01:31:14;;;;;;;5.30;4.20;;;;;;;;;;143735;564;46012;-82
2022/01/27 01:33:43;;;;;;;8.13;3.92;;;;;;;;;;143736;569;45586;-82
2022/01/27 01:36:16;;;;;;;6.00;4.00;;;;;;;;;;143735;685;46020;-83
2022/01/27 01:38:52;;;;;;;3.92;2.95;;;;;;;;;;143734;626;47021;-82
2022/01/27 01:41:19;;;;;;;5.78;2.90;;;;;;;;;;143735;636;46022;-82
2022/01/27 01:43:46;;;;;;;5.95;3.05;;;;;;;;;;143733;576;46022;-83
2022/01/27 01:46:13;;;;;;;4.28;3.17;;;;;;;;;;143732;571;46915;-82
2022/01/27 01:48:40;;;;;;;4.00;2.72;;;;;;;;;;143734;573;46020;-82
2022/01/27 01:51:07;;;;;;;4.47;2.70;;;;;;;;;;143735;582;46012;-83
2022/01/27 01:53:35;;;;;;;5.68;2.67;;;;;;;;;;143731;607;47023;-82
2022/01/27 01:56:04;;;;;;;4.03;2.78;;;;;;;;;;143732;647;46012;-83
2022/01/27 01:58:32;;;;;;;5.45;3.22;;;;;;;;;;143733;588;47020;-83
2022/01/27 02:01:01;;;;;;;5.03;3.15;;;;;;;;;;143736;610;46012;-82
2022/01/27 02:03:28;;;;;;;4.57;2.45;;;;;;;;;;143732;580;47022;-83
2022/01/27 02:05:57;;;;;;;3.60;2.50;;;;;;;;;;143731;590;46012;-82
2022/01/27 02:08:36;;;;;;;4.68;3.03;;;;;;;;;;143732;701;46021;-82
2022/01/27 02:19:26;;;;;;;;;;;;;;;;;;143741;971;46014;-83
2022/01/27 02:22:05;;;;;;;5.97;2.67;;;;;;;;;;143746;564;46010;-83
2022/01/27 02:24:35;;;;;;;3.70;2.75;;;;;;;;;;143731;564;47023;-82
2022/01/27 02:27:05;;;;;;;5.90;3.80;;;;;;;;;;143732;579;46010;-84
2022/01/27 02:29:31;;;;;;;5.10;2.90;;;;;;;;;;143734;573;46020;-83
2022/01/27 02:32:02;;;;;;;4.47;2.70;;;;;;;;;;143734;590;46010;-83
2022/01/27 02:34:30;;;;;;;4.60;3.28;;;;;;;;;;143732;601;46052;-83
2022/01/27 02:36:56;;;;;;;4.53;3.08;;;;;;;;;;143730;631;46013;-85
2022/01/27 02:39:26;;;;;;;4.03;2.87;;;;;;;;;;143734;603;46021;-83
2022/01/27 02:42:20;;;;;;;5.53;3.30;;;;;;;;;;143734;592;46010;-83
2022/01/27 02:45:14;;;;;;;5.37;3.33;;;;;;;;;;143732;565;46024;-83
2022/01/27 02:47:42;;;;;;;4.20;3.08;;;;;;;;;;143733;598;46010;-84
2022/01/27 02:50:09;;;;;;;5.32;3.28;;;;;;;;;;143735;647;46020;-83
2022/01/27 02:52:37;;;;;;;4.78;4.05;;;;;;;;;;143736;598;46029;-84
2022/01/27 02:55:07;;;;;;;5.35;4.37;;;;;;;;;;143734;613;46023;-83
2022/01/27 02:57:37;;;;;;;4.93;3.25;;;;;;;;;;143736;603;46010;-83
2022/01/27 03:00:08;;;;;;;5.03;3.12;;;;;;;;;;143732;580;46021;-84
2022/01/27 03:02:42;;;;;;;4.47;3.10;;;;;;;;;;143735;650;46010;-82
2022/01/27 03:05:11;;;;;;;4.75;3.47;;;;;;;;;;143734;577;46022;-82
2022/01/27 03:07:40;;;;;;;4.28;3.05;;;;;;;;;;143733;669;46021;-83
2022/01/27 03:10:14;;;;;;;5.78;3.37;;;;;;;;;;143734;701;46020;-83
2022/01/27 03:12:40;;;;;;;;;;;;;;;;;;143741;982;46020;-84
2022/01/27 03:15:09;;;;;;;7.90;5.18;;;;;;;;;;143746;675;46020;-84
2022/01/27 03:17:37;;;;;;;11.85;6.72;;;;;;;;;;143735;564;46012;-82
2022/01/27 03:20:08;;;;;;;10.18;6.78;;;;;;;;;;143734;650;46020;-82
2022/01/27 03:22:36;;;;;;;12.15;8.48;;;;;;;;;;143734;674;47018;-83
2022/01/27 03:25:14;;;;;;;;;;;;;;;;;;;;;
2022/01/27 03:27:46;;;;;;;16.23;9.52;;;;;;;;;;143733;569;46020;-83
2022/01/27 03:30:15;;;;;;;17.50;11.20;;;;;;;;;;143733;580;46021;-83
2022/01/27 03:32:43;;;;;;;15.20;11.00;;;;;;;;;;143734;621;46012;-82
2022/01/27 03:35:10;;;;;;;13.20;9.05;;;;;;;;;;143735;640;46022;-82
2022/01/27 03:37:37;;;;;;;17.20;9.23;;;;;;;;;;143732;608;46013;-83
2022/01/27 03:40:07;;;;;;;13.95;10.63;;;;;;;;;;143736;624;46014;-83
2022/01/27 03:42:42;;;;;;;16.08;10.75;;;;;;;;;;143735;660;46020;-83
2022/01/27 03:45:12;;;;;;;19.52;11.45;;;;;;;;;;143732;686;46023;-83
2022/01/27 03:47:42;;;;;;;18.45;12.35;;;;;;;;;;143733;746;46012;-81
2022/01/27 03:50:12;;;;;;;14.27;9.75;;;;;;;;;;143735;620;46020;-83
2022/01/27 03:52:40;;;;;;;27.23;14.27;;;;;;;;;;143734;719;46012;-83
2022/01/27 03:55:10;;;;;;;16.73;11.82;;;;;;;;;;143734;632;46022;-83
2022/01/27 03:57:37;;;;;;;21.60;10.77;;;;;;;;;;143731;711;46012;-82
2022/01/27 04:00:08;;;;;;;16.60;10.13;;;;;;;;;;143733;596;46021;-83
2022/01/27 04:02:49;;;;;;;17.02;10.65;;;;;;;;;;143734;564;46012;-83
2022/01/27 04:05:18;;;;;;;16.20;9.50;;;;;;;;;;143735;585;46022;-83
2022/01/27 04:07:46;;;;;;;14.43;10.38;;;;;;;;;;143732;577;46013;-83
2022/01/27 04:10:13;;;;;;;17.83;11.40;;;;;;;;;;143734;715;46020;-83
2022/01/27 04:12:42;;;;;;;21.65;12.18;;;;;;;;;;143735;563;46012;-83
2022/01/27 04:15:10;;;;;;;21.37;11.60;;;;;;;;;;143732;611;47023;-84
2022/01/27 04:17:37;;;;;;;18.75;11.82;;;;;;;;;;143732;620;46012;-83
2022/01/27 04:20:05;;;;;;;19.77;11.15;;;;;;;;;;143735;721;46020;-82
2022/01/27 04:22:32;;;;;;;14.90;10.98;;;;;;;;;;143736;630;46012;-83
2022/01/27 04:25:01;;;;;;;17.00;10.60;;;;;;;;;;143734;599;46022;-82
2022/01/27 04:27:32;;;;;;;22.83;12.40;;;;;;;;;;143733;654;46020;-83
2022/01/27 04:30:04;;;;;;;17.87;12.77;;;;;;;;;;143735;578;46021;-84
2022/01/27 04:32:39;;;;;;;18.85;11.25;;;;;;;;;;143736;671;46018;-83
2022/01/27 04:35:10;;;;;;;18.15;11.05;;;;;;;;;;143733;647;46022;-83
2022/01/27 04:37:42;;;;;;;17.23;11.30;;;;;;;;;;143733;570;46021;-83
2022/01/27 04:40:15;;;;;;;16.05;10.48;;;;;;;;;;143733;619;46014;-84
2022/01/27 04:42:56;;;;;;;12.55;8.90;;;;;;;;;;143736;642;46020;-81
2022/01/27 04:45:28;;;;;;;14.07;9.15;;;;;;;;;;143732;676;47023;-83
2022/01/27 04:48:05;;;;;;;12.30;8.43;;;;;;;;;;143732;640;46036;-83
2022/01/27 04:50:35;;;;;;;12.70;9.75;;;;;;;;;;143731;647;47021;-84
2022/01/27 04:53:04;;;;;;;17.05;9.65;;;;;;;;;;143736;564;46018;-83
2022/01/27 04:55:31;;;;;;;20.35;11.00;;;;;;;;;;143734;579;46022;-82
2022/01/27 04:58:13;;;;;;;16.00;11.15;;;;;;;;;;143732;573;46013;-82
2022/01/27 05:00:43;;;;;;;16.75;11.27;;;;;;;;;;143733;567;46020;-83
2022/01/27 05:03:31;;;;;;;19.60;12.10;;;;;;;;;;143734;579;46018;-83
2022/01/27 05:06:00;;;;;;;20.88;12.48;;;;;;;;;;143731;592;47022;-84
2022/01/27 05:08:27;;;;;;;19.80;12.10;;;;;;;;;;143733;609;46012;-83
2022/01/27 05:11:00;;;;;;;16.37;11.20;;;;;;;;;;143732;698;46022;-83
2022/01/27 05:13:35;;;;;;;13.85;10.02;;;;;;;;;;143735;606;46014;-83
2022/01/27 05:16:10;;;;;;;19.15;12.05;;;;;;;;;;143736;633;46023;-84
2022/01/27 05:18:37;;;;;;;14.57;10.30;;;;;;;;;;143733;622;46012;-83
2022/01/27 05:21:04;;;;;;;17.85;9.40;;;;;;;;;;143736;655;46021;-82
2022/01/27 05:23:32;;;;;;;14.75;10.45;;;;;;;;;;143736;593;46012;-82
2022/01/27 05:25:59;;;;;;;13.98;9.90;;;;;;;;;;143736;569;46014;-83
2022/01/27 05:28:26;;;;;;;19.87;11.73;;;;;;;;;;143732;578;46013;-83
2022/01/27 05:31:00;;;;;;;18.08;11.15;;;;;;;;;;143735;652;46020;-84
2022/01/27 05:33:26;;;;;;;21.42;13.30;;;;;;;;;;143733;591;46012;-83
2022/01/27 05:35:53;;;;;;;23.23;14.40;;;;;;;;;;143733;681;46022;-82
2022/01/27 05:38:20;;;;;;;24.70;14.10;;;;;;;;;;143732;582;46012;-83
2022/01/27 05:40:46;;;;;;;21.42;15.40;;;;;;;;;;143733;591;46020;-82
2022/01/27 05:43:13;;;;;;;24.27;14.90;;;;;;;;;;143736;677;46019;-83
2022/01/27 05:45:45;;;;;;;20.67;13.45;;;;;;;;;;143730;652;47023;-84
2022/01/27 05:48:11;;;;;;;17.95;11.85;;;;;;;;;;143735;594;45917;-82
2022/01/27 05:50:38;;;;;;;18.20;10.60;;;;;;;;;;143735;578;46021;-82
2022/01/27 05:53:05;;;;;;;14.75;9.82;;;;;;;;;;143734;691;47021;-81
2022/01/27 05:55:32;;;;;;;20.92;11.25;;;;;;;;;;143732;679;46022;-81
2022/01/27 05:58:00;;;;;;;27.27;11.27;;;;;;;;;;143734;614;46012;-81
2022/01/27 06:00:28;;;;;;;17.90;11.43;;;;;;;;;;143737;564;46014;-81
2022/01/27 06:02:57;;;;;;;20.45;13.45;;;;;;;;;;143734;580;46018;-81
2022/01/27 06:05:24;;;;;;;24.83;14.52;;;;;;;;;;143734;621;46015;-82
2022/01/27 06:07:51;;;;;;;27.55;14.52;;;;;;;;;;143732;723;46020;-81
2022/01/27 06:10:17;;;;;;;21.90;14.50;;;;;;;;;;143737;697;46020;-82
2022/01/27 06:12:56;;;;;;;25.48;16.05;;;;;;;;;;143736;625;47019;-82
2022/01/27 06:15:25;;;;;;;26.45;16.60;;;;;;;;;;143734;658;46023;-80
2022/01/27 06:17:53;;;;;;;34.88;18.65;;;;;;;;;;143733;716;46012;-80
2022/01/27 06:20:23;;;;;;;32.00;14.48;;;;;;;;;;143734;597;46021;-82
2022/01/27 06:22:56;;;;;;;27.65;16.20;;;;;;;;;;143738;597;46012;-80
2022/01/27 06:25:24;;;;;;;26.37;15.65;;;;;;;;;;143734;671;46022;-80
2022/01/27 06:27:51;;;;;;;22.13;14.87;;;;;;;;;;143731;682;46917;-80
2022/01/27 06:30:21;;;;;;;25.23;15.68;;;;;;;;;;143736;595;46021;-81
2022/01/27 06:32:48;;;;;;;16.37;11.63;;;;;;;;;;143734;590;47012;-83
2022/01/27 06:35:15;;;;;;;28.90;18.02;;;;;;;;;;143730;636;47022;-81
2022/01/27 06:37:47;;;;;;;25.27;15.48;;;;;;;;;;143734;587;46012;-82
2022/01/27 06:40:15;;;;;;;24.87;15.73;;;;;;;;;;143735;620;47020;-81
2022/01/27 06:42:43;;;;;;;24.65;16.42;;;;;;;;;;143738;601;46021;-81
2022/01/27 06:45:10;;;;;;;26.20;16.65;;;;;;;;;;143733;695;46014;-81
2022/01/27 06:47:38;;;;;;;23.83;15.02;;;;;;;;;;143734;600;46012;-81
2022/01/27 06:50:06;;;;;;;20.95;12.98;;;;;;;;;;143735;573;46021;-81
2022/01/27 06:52:33;;;;;;;22.95;14.05;;;;;;;;;;143737;597;46012;-81
2022/01/27 06:55:03;;;;;;;19.15;12.88;;;;;;;;;;143735;661;46053;-80
2022/01/27 06:57:30;;;;;;;22.87;14.65;;;;;;;;;;143732;587;48020;-83
2022/01/27 06:59:57;;;;;;;21.05;12.90;;;;;;;;;;143736;569;46049;-82
2022/01/27 07:02:24;;;;;;;19.12;13.32;;;;;;;;;;143737;606;46020;-81
2022/01/27 07:04:51;;;;;;;18.85;13.52;;;;;;;;;;143733;564;47022;-82
2022/01/27 07:07:18;;;;;;;24.40;12.77;;;;;;;;;;143735;616;46012;-82
2022/01/27 07:09:49;;;;;;;23.58;13.80;;;;;;;;;;143736;621;46020;-83
2022/01/27 07:12:17;;;;;;;34.92;18.10;;;;;;;;;;143737;729;46043;-82
2022/01/27 07:14:46;;;;;;;44.50;18.20;;;;;;;;;;143737;572;46014;-83
2022/01/27 07:17:17;;;;;;;23.38;16.08;;;;;;;;;;143735;651;47020;-83
2022/01/27 07:19:44;;;;;;;23.73;15.13;;;;;;;;;;143733;690;46021;-82
2022/01/27 07:22:14;;;;;;;26.23;15.10;;;;;;;;;;143737;585;46045;-83
2022/01/27 07:24:45;;;;;;;25.12;15.25;;;;;;;;;;143734;569;47022;-83
2022/01/27 07:27:22;;;;;;;27.33;16.23;;;;;;;;;;143735;565;46012;-84
2022/01/27 07:29:54;;;;;;;22.65;14.40;;;;;;;;;;143734;655;46021;-82
2022/01/27 07:32:21;;;;;;;26.00;15.55;;;;;;;;;;143735;564;46020;-84
2022/01/27 07:34:49;;;;;;;21.80;13.60;;;;;;;;;;143734;633;46022;-83
2022/01/27 07:37:20;;;;;;;21.17;14.15;;;;;;;;;;143735;570;46012;-83
2022/01/27 07:39:55;;;;;;;19.58;13.27;;;;;;;;;;143737;564;46014;-83
2022/01/27 07:42:24;;;;;;;22.33;11.95;;;;;;;;;;143738;613;46013;-83
2022/01/27 07:44:52;;;;;;;19.87;11.60;;;;;;;;;;143736;648;46021;-82
2022/01/27 07:47:20;;;;;;;21.65;12.43;;;;;;;;;;143736;606;46012;-83
2022/01/27 07:49:50;;;;;;;14.13;9.90;;;;;;;;;;143736;620;46021;-83
2022/01/27 07:52:18;;;;;;;26.05;12.50;;;;;;;;;;143739;600;46018;-82
2022/01/27 07:54:45;;;;;;;19.90;13.27;;;;;;;;;;143734;604;46022;-82
2022/01/27 07:57:12;;;;;;;22.83;13.85;;;;;;;;;;143737;623;46021;-83
2022/01/27 07:59:42;;;;;;;23.52;15.90;;;;;;;;;;143735;650;46020;-84
2022/01/27 08:02:09;;;;;;;23.83;15.75;;;;;;;;;;143736;609;46018;-82
2022/01/27 08:04:36;;;;;;;29.45;14.10;;;;;;;;;;143737;624;46049;-82
2022/01/27 08:07:03;;;;;;;23.35;13.60;;;;;;;;;;143734;677;46014;-82
2022/01/27 08:09:30;;;;;;;24.40;13.13;;;;;;;;;;143732;626;48020;-84
2022/01/27 08:11:57;;;;;;;25.02;12.98;;;;;;;;;;143735;583;47020;-83
2022/01/27 08:14:24;;;;;;;26.75;13.13;;;;;;;;;;143730;593;47023;-82
2022/01/27 08:16:51;;;;;;;26.95;12.93;;;;;;;;;;143734;656;46014;-82
2022/01/27 08:19:19;;;;;;;18.65;12.80;;;;;;;;;;143736;576;46021;-81
2022/01/27 08:21:46;;;;;;;20.60;12.50;;;;;;;;;;143736;595;46021;-81
2022/01/27 08:24:14;;;;;;;21.65;12.50;;;;;;;;;;143735;569;46016;-81
2022/01/27 08:26:44;;;;;;;19.42;12.75;;;;;;;;;;143734;598;46020;-81
2022/01/27 08:29:22;;;;;;;21.83;11.63;;;;;;;;;;143735;590;46021;-83
2022/01/27 08:32:02;;;;;;;19.52;13.25;;;;;;;;;;143736;598;46012;-80
2022/01/27 08:34:38;;;;;;;25.23;12.35;;;;;;;;;;143734;658;46021;-81
2022/01/27 08:37:17;;;;;;;23.52;13.45;;;;;;;;;;143734;600;46020;-83
2022/01/27 08:39:47;;;;;;;18.42;10.02;;;;;;;;;;143737;564;46020;-82
2022/01/27 08:42:22;;;;;;;15.07;8.68;;;;;;;;;;143737;566;46012;-82
2022/01/27 08:44:49;;;;;;;12.35;6.75;;;;;;;;;;143736;587;46023;-82
2022/01/27 08:47:18;;;;;;;11.82;6.20;;;;;;;;;;143738;613;46012;-81
2022/01/27 08:49:46;;;;;;;10.13;6.35;;;;;;;;;;143736;613;46021;-81
2022/01/27 08:52:13;;;;;;;11.10;7.25;;;;;;;;;;143737;588;46012;-81
2022/01/27 08:54:42;;;;;;;14.73;6.57;;;;;;;;;;143735;569;46022;-81
2022/01/27 08:57:11;;;;;;;18.17;8.05;;;;;;;;;;143736;605;46012;-80
2022/01/27 08:59:39;;;;;;;11.10;7.37;;;;;;;;;;143735;601;47021;-81
2022/01/27 09:02:07;;;;;;;9.60;6.80;;;;;;;;;;143738;565;46012;-81
2022/01/27 09:04:34;;;;;;;9.13;6.60;;;;;;;;;;143734;573;46022;-81
2022/01/27 09:07:01;;;;;;;9.23;7.03;;;;;;;;;;143734;586;46020;-82
2022/01/27 09:09:28;;;;;;;14.77;7.93;;;;;;;;;;143737;605;46014;-81
2022/01/27 09:11:58;;;;;;;13.55;7.40;;;;;;;;;;143736;630;46019;-80
2022/01/27 09:14:30;;;;;;;11.48;8.45;;;;;;;;;;143735;605;46014;-82
2022/01/27 09:17:12;;;;;;;10.90;7.53;;;;;;;;;;143732;604;46020;-81
2022/01/27 09:19:56;;;;;;;13.68;6.50;;;;;;;;;;143734;589;46021;-84
2022/01/27 09:22:35;;;;;;;9.93;6.25;;;;;;;;;;143737;598;46012;-83
2022/01/27 09:25:14;;;;;;;9.45;7.00;;;;;;;;;;143735;606;46022;-84
2022/01/27 09:27:42;;;;;;;10.70;6.00;;;;;;;;;;143732;583;47021;-84
2022/01/27 09:30:17;;;;;;;10.35;5.87;;;;;;;;;;143740;617;46020;-81
2022/01/27 09:32:59;;;;;;;8.90;5.68;;;;;;;;;;143736;626;46012;-80
2022/01/27 09:35:28;;;;;;;12.43;7.12;;;;;;;;;;143736;572;46023;-81
2022/01/27 09:37:56;;;;;;;9.10;5.93;;;;;;;;;;143738;602;46012;-79
2022/01/27 09:40:25;;;;;;;8.70;6.05;;;;;;;;;;143735;645;46020;-85
2022/01/27 09:42:53;;;;;;;12.02;7.12;;;;;;;;;;143736;606;46012;-81
2022/01/27 09:45:22;;;;;;;9.57;6.03;;;;;;;;;;143734;577;46022;-81
2022/01/27 09:48:00;;;;;;;13.85;6.40;;;;;;;;;;143737;580;45916;-83
2022/01/27 09:53:21;;;;;;;13.62;6.00;;;;;;;;;;143739;603;46018;-80
2022/01/27 09:55:48;;;;;;;6.93;5.15;;;;;;;;;;143736;569;46022;-81
2022/01/27 09:58:22;;;;;;;14.27;9.63;;;;;;;;;;143735;601;46021;-81
2022/01/27 10:00:49;;;;;;;9.70;6.90;;;;;;;;;;143734;585;46020;-80
2022/01/27 10:03:17;;;;;;;10.52;5.80;;;;;;;;;;143736;570;46043;-82
2022/01/27 10:05:45;;;;;;;11.50;7.37;;;;;;;;;;143734;603;46023;-81
2022/01/27 10:08:18;;;;;;;13.60;8.90;;;;;;;;;;143734;590;46036;-81
2022/01/27 10:10:50;;;;;;;9.57;6.05;;;;;;;;;;143735;608;46020;-80
2022/01/27 10:13:40;;;;;;;11.38;7.12;;;;;;;;;;143737;580;46012;-81
2022/01/27 10:16:07;;;;;;;7.68;5.20;;;;;;;;;;143734;571;47022;-81
2022/01/27 10:18:39;;;;;;;9.95;5.45;;;;;;;;;;143733;578;46021;-82
2022/01/27 10:21:09;;;;;;;8.52;5.82;;;;;;;;;;143736;600;46020;-81
2022/01/27 10:23:44;;;;;;;9.02;5.47;;;;;;;;;;143736;587;46012;-80
2022/01/27 10:26:30;;;;;;;8.13;5.53;;;;;;;;;;143736;567;46022;-81
2022/01/27 10:29:07;;;;;;;8.32;5.82;;;;;;;;;;143734;580;46012;-81
2022/01/27 10:31:38;;;;;;;11.15;6.68;;;;;;;;;;143732;614;47020;-80
2022/01/27 10:34:07;;;;;;;9.55;5.28;;;;;;;;;;143737;592;46013;-83
2022/01/27 10:36:45;;;;;;;10.18;5.87;;;;;;;;;;143735;602;46016;-81
2022/01/27 10:39:15;;;;;;;12.07;6.40;;;;;;;;;;143736;576;46020;-81
2022/01/27 10:42:08;;;;;;;11.25;6.62;;;;;;;;;;143734;586;46021;-81
2022/01/27 10:44:56;;;;;;;12.15;6.03;;;;;;;;;;143737;613;47020;-82
2022/01/27 10:47:30;;;;;;;10.40;5.97;;;;;;;;;;143737;638;46022;-80
2022/01/27 10:50:03;;;;;;;12.65;5.95;;;;;;;;;;143736;587;45915;-79
2022/01/27 10:52:37;;;;;;;9.02;5.28;;;;;;;;;;143738;592;46020;-79
2022/01/27 10:55:28;;;;;;;9.63;5.37;;;;;;;;;;143736;581;46013;-82
2022/01/27 10:57:55;;;;;;;8.75;6.03;;;;;;;;;;143734;579;46025;-80
2022/01/27 11:00:24;;;;;;;9.57;5.93;;;;;;;;;;143735;583;46012;-79
2022/01/27 11:03:01;;;;;;;6.68;4.95;;;;;;;;;;143738;600;46020;-80
2022/01/27 11:05:38;;;;;;;7.30;4.90;;;;;;;;;;143736;580;46021;-80
2022/01/27 11:08:10;;;;;;;8.15;5.72;;;;;;;;;;143736;653;46022;-80
2022/01/27 11:10:39;;;;;;;12.88;6.68;;;;;;;;;;143733;738;47012;-79
2022/01/27 11:13:08;;;;;;;10.60;6.07;;;;;;;;;;143736;686;46020;-80
2022/01/27 11:15:42;;;;;;;24.85;11.43;;;;;;;;;;143738;602;46012;-80
2022/01/27 11:18:25;;;;;;;13.57;8.65;;;;;;;;;;143733;642;47022;-79
2022/01/27 11:21:39;;;;;;;10.55;6.12;;;;;;;;;;143731;578;46020;-80
2022/01/27 11:24:24;;;;;;;9.15;4.87;;;;;;;;;;143733;590;46020;-80
2022/01/27 11:27:17;;;;;;;;;;;;;;;;;;;;;
2022/01/27 11:30:25;;;;;;;9.32;6.03;;;;;;;;;;143731;564;47024;-82
2022/01/27 11:33:29;;;;;;;8.60;5.90;;;;;;;;;;143732;593;46012;-79
2022/01/27 11:36:19;;;;;;;6.12;4.32;;;;;;;;;;143734;578;46020;-79
2022/01/27 11:38:50;;;;;;;6.45;4.10;;;;;;;;;;143733;581;46018;-80
2022/01/27 11:41:45;;;;;;;7.75;3.85;;;;;;;;;;143730;581;47022;-81
2022/01/27 11:44:45;;;;;;;6.55;4.40;;;;;;;;;;143731;598;46012;-81
2022/01/27 11:47:24;;;;;;;8.77;5.40;;;;;;;;;;143736;572;46020;-82
2022/01/27 11:53:07;;;;;;;6.22;3.80;;;;;;;;;;143732;593;46020;-80
2022/01/27 11:56:06;;;;;;;5.35;4.47;;;;;;;;;;143733;587;46012;-80
2022/01/27 11:59:27;;;;;;;6.47;4.12;;;;;;;;;;143734;578;46020;-80
2022/01/27 12:02:00;;;;;;;7.60;4.72;;;;;;;;;;143734;578;47020;-79
2022/01/27 12:04:38;;;;;;;5.87;4.95;;;;;;;;;;143732;608;46015;-82
2022/01/27 12:07:10;;;;;;;7.20;5.30;;;;;;;;;;143732;570;46020;-79
2022/01/27 12:09:54;;;;;;;7.47;4.68;;;;;;;;;;143733;588;46015;-80
2022/01/27 12:12:39;;;;;;;6.80;4.43;;;;;;;;;;143735;639;46021;-80
2022/01/27 12:15:10;;;;;;;11.35;5.43;;;;;;;;;;143732;674;46020;-81
2022/01/27 12:17:49;;;;;;;5.68;4.05;;;;;;;;;;143733;607;46012;-79
2022/01/27 12:20:18;;;;;;;6.07;3.42;;;;;;;;;;143733;714;46014;-80
2022/01/27 12:23:14;;;;;;;7.45;4.35;;;;;;;;;;143737;611;46020;-81
2022/01/27 12:25:48;;;;;;;7.28;4.43;;;;;;;;;;143734;594;46024;-81
2022/01/27 12:28:19;;;;;;;6.30;5.12;;;;;;;;;;143733;594;46020;-79
2022/01/27 12:30:56;;;;;;;9.13;5.12;;;;;;;;;;143734;565;46020;-81
2022/01/27 12:33:26;;;;;;;10.75;4.07;;;;;;;;;;143736;602;46013;-80
2022/01/27 12:36:22;;;;;;;8.75;6.07;;;;;;;;;;143732;728;46020;-79
2022/01/27 12:38:49;;;;;;;14.70;7.57;;;;;;;;;;143733;573;46044;-81
2022/01/27 12:41:58;;;;;;;;;;;;;;;;;;;;;
2022/01/27 12:44:26;;;;;;;7.60;4.90;;;;;;;;;;143733;569;46022;-79
2022/01/27 12:47:48;;;;;;;;;;;;;;;;;;;;;
2022/01/27 12:50:18;;;;;;;6.90;5.43;;;;;;;;;;143734;577;46050;-80
2022/01/27 12:52:57;;;;;;;12.55;5.53;;;;;;;;;;143728;570;48020;-80
2022/01/27 12:55:36;;;;;;;10.95;7.78;;;;;;;;;;143735;567;46021;-80
2022/01/27 12:58:17;;;;;;;9.48;7.57;;;;;;;;;;143734;587;46023;-81
2022/01/27 13:00:49;;;;;;;8.32;5.78;;;;;;;;;;143733;740;46012;-80
2022/01/27 13:03:25;;;;;;;4.53;3.80;;;;;;;;;;143733;664;46021;-79
2022/01/27 13:06:30;;;;;;;8.93;5.68;;;;;;;;;;143737;622;45020;-79
2022/01/27 13:09:29;;;;;;;7.30;6.07;;;;;;;;;;143731;600;46022;-81
2022/01/27 13:12:00;;;;;;;7.65;5.37;;;;;;;;;;143730;582;46020;-80
2022/01/27 13:14:32;;;;;;;9.73;5.80;;;;;;;;;;143735;589;46020;-81
2022/01/27 13:17:17;;;;;;;5.90;5.30;;;;;;;;;;143736;570;46012;-80
2022/01/27 13:19:59;;;;;;;8.45;6.18;;;;;;;;;;143733;602;46023;-81
2022/01/27 13:22:49;;;;;;;8.48;4.37;;;;;;;;;;143735;581;46020;-80
2022/01/27 13:25:55;;;;;;;10.60;6.65;;;;;;;;;;143738;625;45024;-81
2022/01/27 13:28:35;;;;;;;13.20;9.18;;;;;;;;;;143737;642;46012;-81
2022/01/27 13:31:54;;;;;;;8.25;4.82;;;;;;;;;;143735;599;46020;-80
2022/01/27 13:34:21;;;;;;;7.45;5.40;;;;;;;;;;143735;579;46014;-80
2022/01/27 13:37:08;;;;;;;7.68;4.32;;;;;;;;;;143735;601;46020;-79
2022/01/27 13:43:03;;;;;;;6.32;4.65;;;;;;;;;;143733;575;46023;-81
2022/01/27 13:46:01;;;;;;;5.60;4.40;;;;;;;;;;143733;581;46020;-81
2022/01/27 13:48:28;;;;;;;6.55;4.62;;;;;;;;;;143733;605;47021;-80
2022/01/27 13:50:59;;;;;;;6.50;3.78;;;;;;;;;;143736;618;46020;-82
2022/01/27 13:53:26;;;;;;;10.63;7.50;;;;;;;;;;143735;585;46022;-79
2022/01/27 13:56:07;;;;;;;5.25;4.05;;;;;;;;;;143733;573;46012;-81
2022/01/27 13:58:39;;;;;;;12.05;6.62;;;;;;;;;;143734;564;46020;-81
2022/01/27 14:01:21;;;;;;;10.85;5.72;;;;;;;;;;143737;570;46013;-81
2022/01/27 14:03:49;;;;;;;8.27;6.00;;;;;;;;;;143734;616;46023;-81
2022/01/27 14:06:18;;;;;;;5.60;3.65;;;;;;;;;;143732;603;46021;-80
2022/01/27 14:08:46;;;;;;;5.35;3.92;;;;;;;;;;143732;565;46015;-79
2022/01/27 14:11:20;;;;;;;6.37;4.25;;;;;;;;;;143736;585;46018;-81
2022/01/27 14:14:08;;;;;;;4.05;3.08;;;;;;;;;;143735;565;46014;-82
2022/01/27 14:16:44;;;;;;;8.90;4.53;;;;;;;;;;143732;566;46021;-80
2022/01/27 14:19:17;;;;;;;6.47;5.18;;;;;;;;;;143734;644;46043;-80
2022/01/27 14:21:45;;;;;;;8.50;5.57;;;;;;;;;;143734;571;46012;-79
2022/01/27 14:24:20;;;;;;;6.10;4.55;;;;;;;;;;143731;607;47021;-80
2022/01/27 14:27:02;;;;;;;7.57;4.78;;;;;;;;;;143733;610;46012;-81
2022/01/27 14:29:30;;;;;;;5.82;4.40;;;;;;;;;;143733;596;46020;-80
2022/01/27 14:31:59;;;;;;;6.80;4.97;;;;;;;;;;143736;570;46037;-81
2022/01/27 14:34:44;;;;;;;10.70;4.35;;;;;;;;;;143734;602;45033;-80
2022/01/27 14:37:12;;;;;;;8.35;5.82;;;;;;;;;;143733;678;46020;-81
2022/01/27 14:39:48;;;;;;;7.37;5.75;;;;;;;;;;143735;581;46021;-80
2022/01/27 14:42:23;;;;;;;8.77;5.90;;;;;;;;;;143735;571;46020;-81
2022/01/27 14:44:53;;;;;;;6.50;4.43;;;;;;;;;;143733;568;46022;-80
2022/01/27 14:47:21;;;;;;;9.25;6.85;;;;;;;;;;143733;656;46021;-80
2022/01/27 14:49:53;;;;;;;6.03;4.75;;;;;;;;;;143734;585;46020;-81
2022/01/27 14:52:27;;;;;;;9.73;5.15;;;;;;;;;;143735;611;46020;-79
2022/01/27 14:54:59;;;;;;;9.20;6.70;;;;;;;;;;143734;625;46022;-80
2022/01/27 14:57:35;;;;;;;12.65;8.20;;;;;;;;;;143733;672;46012;-80
2022/01/27 15:00:04;;;;;;;8.25;6.53;;;;;;;;;;143735;684;46020;-81
2022/01/27 15:02:35;;;;;;;12.70;7.32;;;;;;;;;;143734;711;46012;-81
2022/01/27 15:05:04;;;;;;;;;;;;;;;;;;143738;982;46022;-81
2022/01/27 15:07:37;;;;;;;11.15;6.15;;;;;;;;;;143744;574;46010;-80
2022/01/27 15:10:09;;;;;;;6.43;4.93;;;;;;;;;;143734;594;46021;-82
2022/01/27 15:12:37;;;;;;;8.10;4.93;;;;;;;;;;143733;742;47010;-80
2022/01/27 15:20:56;;;;;;;11.57;5.53;;;;;;;;;;143735;564;46020;-79
2022/01/27 15:23:27;;;;;;;12.90;5.53;;;;;;;;;;143735;628;46011;-80
2022/01/27 15:25:57;;;;;;;8.10;5.93;;;;;;;;;;143733;582;46020;-80
2022/01/27 15:28:26;;;;;;;13.75;7.78;;;;;;;;;;143731;587;46010;-82
2022/01/27 15:30:59;;;;;;;9.73;6.60;;;;;;;;;;143733;728;46021;-80
2022/01/27 15:33:33;;;;;;;14.07;8.85;;;;;;;;;;143733;566;47021;-82
2022/01/27 15:36:03;;;;;;;11.70;8.43;;;;;;;;;;143732;577;46022;-82
2022/01/27 15:38:37;;;;;;;22.85;11.88;;;;;;;;;;143731;571;46011;-80
2022/01/27 15:41:21;;;;;;;18.45;11.85;;;;;;;;;;143732;585;47020;-81
2022/01/27 15:43:52;;;;;;;15.32;10.73;;;;;;;;;;143733;584;46010;-80
2022/01/27 15:46:26;;;;;;;17.62;12.07;;;;;;;;;;143733;571;46021;-81
2022/01/27 15:48:54;;;;;;;13.40;11.27;;;;;;;;;;143732;603;46012;-80
2022/01/27 15:51:31;;;;;;;19.90;11.95;;;;;;;;;;143734;605;46022;-80
2022/01/27 15:54:10;;;;;;;19.67;12.13;;;;;;;;;;143736;583;46016;-81
2022/01/27 15:56:46;;;;;;;12.65;9.60;;;;;;;;;;143732;671;46022;-81
2022/01/27 15:59:25;;;;;;;16.27;10.32;;;;;;;;;;143732;672;46010;-81
2022/01/27 16:02:02;;;;;;;19.58;13.60;;;;;;;;;;143736;595;46012;-80
2022/01/27 16:04:51;;;;;;;28.52;18.05;;;;;;;;;;143734;603;46010;-80